Terminal Aerodrome Forecast
Issued by NWS

Home | Current Version | Previous Version | Text Only | Print | Product List | Glossary On
Versions: 1 2 3 4 5 6 7 8 9 10 11 12 13 14 15 16 17 18 19 20 21 22 23 24 25 26 27 28 29 30 31 32 33 34 35 36
000
FTUS41 KBTV 220225 AAA
TAFRUT
TAF AMD
KRUT 220225Z 2202/2224 VRB04KT 6SM BR VCSH SCT003 BKN035
      TEMPO 2202/2205 2SM BR BKN007
     FM220500 12003KT P6SM BKN020
     FM221400 35005KT P6SM VCSH BKN035=

USA.gov is the U.S. government's official web portal to all federal, state and local government web resources and services.